Koun Maru — JK5556 — position and weather

sailwx.info

Track history (hours):
 
Tides and Currents Weather Stations Pressure Air Temp Water Temp Dewpoint Dewpoint Depression Visibility Wind Speed Wind Dir Waves Ship Positions

Koun Maru

Last reported at 2014-Nov-21 03:29 UTC. Time now 2014-Nov-22 03:09 UTC.
Position N 34°38' E 135°27'.

Length 40 m.

Type: Tanker. MMSI: 431401871.

Date/timePositionNaut miles runAvg speedWind from/ knotsBaromVisibWave heightAir tempDewpointWater temp
2014-Nov-21 03:29N 34°38' E 135°27'3 1.7
2014-Nov-21 01:30N 34°34' E 135°26'5 0.3
2014-Nov-20 10:28N 34°39' E 135°27'910.2
2014-Nov-20 09:33N 34°37' E 135°16'5 0.1
2014-Nov-18 22:33N 34°37' E 135°10'1110.6
2014-Nov-18 21:28N 34°40' E 135°24'3 0.1
2014-Nov-17 04:19N 34°39' E 135°27'8 9.9
2014-Nov-17 03:29N 34°33' E 135°20'1110.4
2014-Nov-17 02:23N 34°25' E 135°10'11 9.6
2014-Nov-17 01:13N 34°15' E 135°04'3 1.6
2014-Nov-16 23:04N 34°14' E 135°08'1 1.9
2014-Nov-16 22:25N 34°15' E 135°06'0 0.0
2014-Nov-16 21:15N 34°15' E 135°06'0 0.0
2014-Nov-16 20:33N 34°15' E 135°06'0 0.0
2014-Nov-16 19:18N 34°15' E 135°06'0 0.0
2014-Nov-16 18:33N 34°15' E 135°06'0 0.0
2014-Nov-16 17:33N 34°15' E 135°06'0 0.0
2014-Nov-16 16:21N 34°15' E 135°06'0 0.0
2014-Nov-16 15:33N 34°15' E 135°06'0 0.0
2014-Nov-16 14:33N 34°15' E 135°06'0 0.0
2014-Nov-16 12:29N 34°15' E 135°06'0 0.0
2014-Nov-16 11:33N 34°15' E 135°06'0 0.0
2014-Nov-16 09:16N 34°15' E 135°06'0 0.0
2014-Nov-16 08:16N 34°15' E 135°06'0 0.0
2014-Nov-16 05:11N 34°15' E 135°06'29 0.7
2014-Nov-14 10:26N 34°39' E 135°26'910.4
2014-Nov-14 09:33N 34°37' E 135°15'1210.9
2014-Nov-14 08:29N 34°37' E 135°01'  
2014-Nov-11 08:25N 34°08' E 135°06'  
Track history (hours):
 
Tides and Currents Weather Stations Pressure Air Temp Water Temp Dewpoint Dewpoint Depression Visibility Wind Speed Wind Dir Waves Ship Positions

Koun Maru

Last reported at 2014-Nov-21 03:29 UTC. Time now 2014-Nov-22 03:09 UTC.
Position N 34°38' E 135°27'.

Length 40 m.

Type: Tanker. MMSI: 431401871.

Date/timePositionNaut miles runAvg speedWind from/ knotsBaromVisibWave heightAir tempDewpointWater temp
2014-Nov-21 03:29N 34°38' E 135°27'3 1.7
2014-Nov-21 01:30N 34°34' E 135°26'5 0.3
2014-Nov-20 10:28N 34°39' E 135°27'910.2
2014-Nov-20 09:33N 34°37' E 135°16'5 0.1
2014-Nov-18 22:33N 34°37' E 135°10'1110.6
2014-Nov-18 21:28N 34°40' E 135°24'3 0.1
2014-Nov-17 04:19N 34°39' E 135°27'8 9.9
2014-Nov-17 03:29N 34°33' E 135°20'1110.4
2014-Nov-17 02:23N 34°25' E 135°10'11 9.6
2014-Nov-17 01:13N 34°15' E 135°04'3 1.6
2014-Nov-16 23:04N 34°14' E 135°08'1 1.9
2014-Nov-16 22:25N 34°15' E 135°06'0 0.0
2014-Nov-16 21:15N 34°15' E 135°06'0 0.0
2014-Nov-16 20:33N 34°15' E 135°06'0 0.0
2014-Nov-16 19:18N 34°15' E 135°06'0 0.0
2014-Nov-16 18:33N 34°15' E 135°06'0 0.0
2014-Nov-16 17:33N 34°15' E 135°06'0 0.0
2014-Nov-16 16:21N 34°15' E 135°06'0 0.0
2014-Nov-16 15:33N 34°15' E 135°06'0 0.0
2014-Nov-16 14:33N 34°15' E 135°06'0 0.0
2014-Nov-16 12:29N 34°15' E 135°06'0 0.0
2014-Nov-16 11:33N 34°15' E 135°06'0 0.0
2014-Nov-16 09:16N 34°15' E 135°06'0 0.0
2014-Nov-16 08:16N 34°15' E 135°06'0 0.0
2014-Nov-16 05:11N 34°15' E 135°06'29 0.7
2014-Nov-14 10:26N 34°39' E 135°26'910.4
2014-Nov-14 09:33N 34°37' E 135°15'1210.9
2014-Nov-14 08:29N 34°37' E 135°01'  
2014-Nov-11 08:25N 34°08' E 135°06'  

Dump ship's entire track history